Map

Track Data

SID SEASON NUMBER BASIN SUBBASIN NAME ISO_TIME NATURE LAT LON WMO_WIND WMO_PRES WMO_AGENCY TRACK_TYPE DIST2LAND LANDFALL IFLAG USA_AGENCY USA_ATCF_ID USA_LAT USA_LON USA_RECORD USA_STATUS USA_WIND USA_PRES USA_SSHS USA_R34_NE USA_R34_SE USA_R34_SW USA_R34_NW USA_R50_NE USA_R50_SE USA_R50_SW USA_R50_NW USA_R64_NE USA_R64_SE USA_R64_SW USA_R64_NW USA_POCI USA_ROCI USA_RMW USA_EYE TOKYO_LAT TOKYO_LON TOKYO_GRADE TOKYO_WIND TOKYO_PRES TOKYO_R50_DIR TOKYO_R50_LONG TOKYO_R50_SHORT TOKYO_R30_DIR TOKYO_R30_LONG TOKYO_R30_SHORT TOKYO_LAND CMA_LAT CMA_LON CMA_CAT CMA_WIND CMA_PRES HKO_LAT HKO_LON HKO_CAT HKO_WIND HKO_PRES NEWDELHI_LAT NEWDELHI_LON NEWDELHI_GRADE NEWDELHI_WIND NEWDELHI_PRES NEWDELHI_CI NEWDELHI_DP NEWDELHI_POCI REUNION_LAT REUNION_LON REUNION_TYPE REUNION_WIND REUNION_PRES REUNION_TNUM REUNION_CI REUNION_RMW REUNION_R34_NE REUNION_R34_SE REUNION_R34_SW REUNION_R34_NW REUNION_R50_NE REUNION_R50_SE REUNION_R50_SW REUNION_R50_NW REUNION_R64_NE REUNION_R64_SE REUNION_R64_SW REUNION_R64_NW BOM_LAT BOM_LON BOM_TYPE BOM_WIND BOM_PRES BOM_TNUM BOM_CI BOM_RMW BOM_R34_NE BOM_R34_SE BOM_R34_SW BOM_R34_NW BOM_R50_NE BOM_R50_SE BOM_R50_SW BOM_R50_NW BOM_R64_NE BOM_R64_SE BOM_R64_SW BOM_R64_NW BOM_ROCI BOM_POCI BOM_EYE BOM_POS_METHOD BOM_PRES_METHOD NADI_LAT NADI_LON NADI_CAT NADI_WIND NADI_PRES WELLINGTON_LAT WELLINGTON_LON WELLINGTON_WIND WELLINGTON_PRES DS824_LAT DS824_LON DS824_STAGE DS824_WIND DS824_PRES TD9636_LAT TD9636_LON TD9636_STAGE TD9636_WIND TD9636_PRES TD9635_LAT TD9635_LON TD9635_WIND TD9635_PRES TD9635_ROCI NEUMANN_LAT NEUMANN_LON NEUMANN_CLASS NEUMANN_WIND NEUMANN_PRES MLC_LAT MLC_LON MLC_CLASS MLC_WIND MLC_PRES USA_GUST BOM_GUST BOM_GUST_PER REUNION_GUST REUNION_GUST_PER USA_SEAHGT USA_SEARAD_NE USA_SEARAD_SE USA_SEARAD_SW USA_SEARAD_NW STORM_SPEED STORM_DIR
1910325S21115 1911 54 SI WA NOT_NAMED 1910-11-21 06:00:00 NR -21.4000 115.100 main 24 15 _____O________ -1 -21.4000 115.100 99 9.90000 1 208
1910325S21115 1911 54 SI WA NOT_NAMED 1910-11-21 09:00:00 NR -21.4608 115.061 main 15 15 _____P________ -1 -21.4608 115.061 99 2 211
1910325S21115 1911 54 SI WA NOT_NAMED 1910-11-21 12:00:00 NR -21.5265 115.012 main 22 11 _____P________ -1 -21.5265 115.012 99 2 219
1910325S21115 1911 54 SI WA NOT_NAMED 1910-11-21 15:00:00 NR -21.6021 114.941 main 11 0 _____P________ -1 -21.6021 114.941 99 2 224
1910325S21115 1911 54 SI WA NOT_NAMED 1910-11-21 18:00:00 NR -21.6926 114.839 main 10 0 _____P________ -1 -21.6926 114.839 99 3 229
1910325S21115 1911 54 SI WA NOT_NAMED 1910-11-21 21:00:00 NR -21.8029 114.695 main 0 0 _____P________ -1 -21.8029 114.695 99 4 232
1910325S21115 1911 54 SI WA NOT_NAMED 1910-11-22 00:00:00 NR -21.9377 114.497 main 10 10 _____P________ -1 -21.9377 114.497 99 5 235
1910325S21115 1911 54 SI WA NOT_NAMED 1910-11-22 03:00:00 NR -22.1019 114.236 main 10 0 _____P________ -1 -22.1019 114.236 99 7 237
1910325S21115 1911 54 SI WA NOT_NAMED 1910-11-22 06:00:00 NR -22.3000 113.900 main 0 0 _____O________ -1 -22.3000 113.900 99 9.90000 8 238
1910325S21115 1911 54 SI WA NOT_NAMED 1910-11-22 09:00:00 NR -22.5367 113.484 main 15 10 _____P________ -1 -22.5367 113.484 99 10 238
1910325S21115 1911 54 SI WA NOT_NAMED 1910-11-22 12:00:00 NR -22.8176 113.011 main 65 65 _____P________ -1 -22.8176 113.011 99 11 236
1910325S21115 1911 54 SI WA NOT_NAMED 1910-11-22 15:00:00 NR -23.1488 112.506 main 125 125 _____P________ -1 -23.1488 112.506 99 12 232
1910325S21115 1911 54 SI WA NOT_NAMED 1910-11-22 18:00:00 NR -23.5368 111.999 main 159 156 _____P________ -1 -23.5368 111.999 99 12 227
1910325S21115 1911 54 SI WA NOT_NAMED 1910-11-22 21:00:00 NR -23.9885 111.516 main 197 197 _____P________ -1 -23.9885 111.516 99 13 221
1910325S21115 1911 54 SI WA NOT_NAMED 1910-11-23 00:00:00 NR -24.5111 111.087 main 232 232 _____P________ -1 -24.5111 111.087 99 13 212
1910325S21115 1911 54 SI WA NOT_NAMED 1910-11-23 03:00:00 NR -25.1122 110.738 main 279 274 _____P________ -1 -25.1122 110.738 99 14 202
1910325S21115 1911 54 SI WA NOT_NAMED 1910-11-23 06:00:00 NR -25.8000 110.500 main 281 279 _____O________ -1 -25.8000 110.500 99 9.90000 16 189
1910325S21115 1911 54 SI WA NOT_NAMED 1910-11-23 09:00:00 NR -26.6962 110.447 main 291 288 _____P________ -1 -26.6962 110.447 99 19 0
1910325S21115 1911 54 SI WA NOT_NAMED 1910-11-23 12:00:00 NR -27.7013 110.501 main 318 318 _____P________ -1 -27.7013 110.501 99 21 175
1910325S21115 1911 54 SI WA NOT_NAMED 1910-11-23 15:00:00 NR -28.7744 110.649 main 359 350 _____P________ -1 -28.7744 110.649 99 22 171
1910325S21115 1911 54 SI WA NOT_NAMED 1910-11-23 18:00:00 NR -29.8738 110.877 main 378 374 _____P________ -1 -29.8738 110.877 99 22 168
1910325S21115 1911 54 SI WA NOT_NAMED 1910-11-23 21:00:00 NR -30.9577 111.172 main 376 369 _____P________ -1 -30.9577 111.172 99 22 165
1910325S21115 1911 54 SI WA NOT_NAMED 1910-11-24 00:00:00 NR -31.9843 111.519 main 372 298 _____P________ -1 -31.9843 111.519 99 21 162
1910325S21115 1911 54 SI WA NOT_NAMED 1910-11-24 03:00:00 NR -32.9121 111.901 main 298 249 _____P________ -1 -32.9121 111.901 99 18 159
1910325S21115 1911 54 SI WA NOT_NAMED 1910-11-24 06:00:00 NR -33.7000 112.300 main 249 212 _____O________ -1 -33.7000 112.300 99 9.90000 16 155
1910325S21115 1911 54 SI WA NOT_NAMED 1910-11-24 09:00:00 NR -34.3182 112.700 main 212 185 _____P________ -1 -34.3182 112.700 99 13 149
1910325S21115 1911 54 SI WA NOT_NAMED 1910-11-24 12:00:00 NR -34.7792 113.097 main 188 165 _____P________ -1 -34.7792 113.097 99 10 140
1910325S21115 1911 54 SI WA NOT_NAMED 1910-11-24 15:00:00 NR -35.1055 113.490 main 165 148 _____P________ -1 -35.1055 113.490 99 8 130
1910325S21115 1911 54 SI WA NOT_NAMED 1910-11-24 18:00:00 NR -35.3196 113.878 main 148 138 _____P________ -1 -35.3196 113.878 99 7 118
1910325S21115 1911 54 SI WA NOT_NAMED 1910-11-24 21:00:00 NR -35.4440 114.263 main 133 130 _____P________ -1 -35.4440 114.263 99 6 106
1910325S21115 1911 54 SI WA NOT_NAMED 1910-11-25 00:00:00 NR -35.5007 114.644 main 130 119 _____P________ -1 -35.5007 114.644 99 6 96
1910325S21115 1911 54 SI WA NOT_NAMED 1910-11-25 03:00:00 NR -35.5120 115.023 main 119 95 _____P________ -1 -35.5120 115.023 99 6 90
1910325S21115 1911 54 SI WA NOT_NAMED 1910-11-25 06:00:00 NR -35.5000 115.400 main 95 _____O________ -1 -35.5000 115.400 99 9.90000 6 88

About IBTrACS Database

This database is a web-friendly format of International Best Track Archive for Climate Stewardship (IBTrACS), a global best track data archive curated by NOAA dating back to 1842.

Updated: 2021-10-27